sensor_id;sensor_type;location;lat;lon;timestamp;P1;durP1;ratioP1;P2;durP2;ratioP2
56680;SDS011;42558;52.388;13.390;2022-10-16T00:01:42;8.55;;;4.37;;
56680;SDS011;42558;52.388;13.390;2022-10-16T00:04:09;7.41;;;3.61;;
56680;SDS011;42558;52.388;13.390;2022-10-16T00:06:36;7.98;;;4.18;;
56680;SDS011;42558;52.388;13.390;2022-10-16T00:09:03;6.46;;;3.80;;
56680;SDS011;42558;52.388;13.390;2022-10-16T00:11:37;7.22;;;3.99;;
56680;SDS011;42558;52.388;13.390;2022-10-16T00:14:12;7.03;;;4.37;;
56680;SDS011;42558;52.388;13.390;2022-10-16T00:16:41;7.03;;;3.99;;
56680;SDS011;42558;52.388;13.390;2022-10-16T00:19:10;6.46;;;3.42;;
56680;SDS011;42558;52.388;13.390;2022-10-16T00:21:38;7.22;;;3.23;;
56680;SDS011;42558;52.388;13.390;2022-10-16T00:24:07;8.17;;;3.80;;
56680;SDS011;42558;52.388;13.390;2022-10-16T00:26:36;7.22;;;3.99;;
56680;SDS011;42558;52.388;13.390;2022-10-16T00:29:04;6.46;;;3.99;;
56680;SDS011;42558;52.388;13.390;2022-10-16T00:31:34;6.65;;;3.04;;
56680;SDS011;42558;52.388;13.390;2022-10-16T00:34:01;6.65;;;3.99;;
56680;SDS011;42558;52.388;13.390;2022-10-16T00:36:27;7.03;;;3.99;;
56680;SDS011;42558;52.388;13.390;2022-10-16T00:38:56;6.46;;;3.80;;
56680;SDS011;42558;52.388;13.390;2022-10-16T00:41:31;7.22;;;3.61;;
56680;SDS011;42558;52.388;13.390;2022-10-16T00:44:01;7.03;;;3.42;;
56680;SDS011;42558;52.388;13.390;2022-10-16T00:46:40;9.88;;;4.56;;
56680;SDS011;42558;52.388;13.390;2022-10-16T00:49:16;8.55;;;4.18;;
56680;SDS011;42558;52.388;13.390;2022-10-16T00:51:47;7.22;;;3.99;;
56680;SDS011;42558;52.388;13.390;2022-10-16T00:54:29;8.93;;;3.99;;
56680;SDS011;42558;52.388;13.390;2022-10-16T00:57:02;8.55;;;3.04;;
56680;SDS011;42558;52.388;13.390;2022-10-16T00:59:37;8.36;;;4.18;;
56680;SDS011;42558;52.388;13.390;2022-10-16T01:02:08;7.98;;;3.23;;
56680;SDS011;42558;52.388;13.390;2022-10-16T01:04:43;7.60;;;3.80;;
56680;SDS011;42558;52.388;13.390;2022-10-16T01:07:16;7.22;;;3.61;;
56680;SDS011;42558;52.388;13.390;2022-10-16T01:10:07;6.84;;;3.42;;
56680;SDS011;42558;52.388;13.390;2022-10-16T01:12:54;7.41;;;3.61;;
56680;SDS011;42558;52.388;13.390;2022-10-16T01:16:12;7.41;;;3.80;;
56680;SDS011;42558;52.388;13.390;2022-10-16T01:18:47;8.17;;;3.23;;
56680;SDS011;42558;52.388;13.390;2022-10-16T01:21:35;6.65;;;3.61;;
56680;SDS011;42558;52.388;13.390;2022-10-16T01:24:16;6.27;;;3.04;;
56680;SDS011;42558;52.388;13.390;2022-10-16T01:27:15;6.46;;;3.61;;
56680;SDS011;42558;52.388;13.390;2022-10-16T01:29:56;8.36;;;3.99;;
56680;SDS011;42558;52.388;13.390;2022-10-16T01:35:27;9.31;;;4.18;;
56680;SDS011;42558;52.388;13.390;2022-10-16T01:38:12;6.08;;;3.42;;
56680;SDS011;42558;52.388;13.390;2022-10-16T01:40:51;7.41;;;3.80;;
56680;SDS011;42558;52.388;13.390;2022-10-16T01:43:53;6.65;;;3.04;;
56680;SDS011;42558;52.388;13.390;2022-10-16T01:46:30;7.60;;;4.18;;
56680;SDS011;42558;52.388;13.390;2022-10-16T01:49:00;6.65;;;3.23;;
56680;SDS011;42558;52.388;13.390;2022-10-16T01:51:29;7.79;;;3.99;;
56680;SDS011;42558;52.388;13.390;2022-10-16T01:53:59;8.55;;;3.99;;
56680;SDS011;42558;52.388;13.390;2022-10-16T01:56:29;7.60;;;3.42;;
56680;SDS011;42558;52.388;13.390;2022-10-16T01:59:03;9.69;;;4.18;;
56680;SDS011;42558;52.388;13.390;2022-10-16T02:01:35;6.08;;;3.42;;
56680;SDS011;42558;52.388;13.390;2022-10-16T02:04:13;7.41;;;3.42;;
56680;SDS011;42558;52.388;13.390;2022-10-16T02:06:45;7.03;;;3.42;;
56680;SDS011;42558;52.388;13.390;2022-10-16T02:09:11;7.41;;;3.61;;
56680;SDS011;42558;52.388;13.390;2022-10-16T02:11:38;8.93;;;3.61;;
56680;SDS011;42558;52.388;13.390;2022-10-16T02:14:06;10.45;;;3.23;;
56680;SDS011;42558;52.388;13.390;2022-10-16T02:16:35;6.84;;;3.80;;
56680;SDS011;42558;52.388;13.390;2022-10-16T02:19:11;7.60;;;3.42;;
56680;SDS011;42558;52.388;13.390;2022-10-16T02:21:52;6.08;;;3.23;;
56680;SDS011;42558;52.388;13.390;2022-10-16T02:27:42;7.41;;;3.61;;
56680;SDS011;42558;52.388;13.390;2022-10-16T02:30:32;6.65;;;3.61;;
56680;SDS011;42558;52.388;13.390;2022-10-16T02:33:07;8.55;;;3.80;;
56680;SDS011;42558;52.388;13.390;2022-10-16T02:35:36;7.41;;;3.23;;
56680;SDS011;42558;52.388;13.390;2022-10-16T02:38:05;8.55;;;3.80;;
56680;SDS011;42558;52.388;13.390;2022-10-16T02:40:33;6.27;;;3.42;;
56680;SDS011;42558;52.388;13.390;2022-10-16T02:43:03;7.98;;;4.37;;
56680;SDS011;42558;52.388;13.390;2022-10-16T02:45:31;9.12;;;3.61;;
56680;SDS011;42558;52.388;13.390;2022-10-16T02:47:58;6.46;;;3.23;;
56680;SDS011;42558;52.388;13.390;2022-10-16T02:50:24;6.46;;;3.61;;
56680;SDS011;42558;52.388;13.390;2022-10-16T02:52:51;7.79;;;3.61;;
56680;SDS011;42558;52.388;13.390;2022-10-16T02:55:18;11.97;;;3.61;;
56680;SDS011;42558;52.388;13.390;2022-10-16T02:57:45;6.65;;;3.23;;
56680;SDS011;42558;52.388;13.390;2022-10-16T03:00:15;6.27;;;3.42;;
56680;SDS011;42558;52.388;13.390;2022-10-16T03:02:43;6.27;;;3.61;;
56680;SDS011;42558;52.388;13.390;2022-10-16T03:05:10;6.27;;;3.61;;
56680;SDS011;42558;52.388;13.390;2022-10-16T03:07:37;6.46;;;3.80;;
56680;SDS011;42558;52.388;13.390;2022-10-16T03:10:04;6.84;;;3.61;;
56680;SDS011;42558;52.388;13.390;2022-10-16T03:12:31;6.65;;;3.42;;
56680;SDS011;42558;52.388;13.390;2022-10-16T03:14:58;11.02;;;3.61;;
56680;SDS011;42558;52.388;13.390;2022-10-16T03:17:25;6.46;;;3.80;;
56680;SDS011;42558;52.388;13.390;2022-10-16T03:19:52;10.64;;;4.18;;
56680;SDS011;42558;52.388;13.390;2022-10-16T03:22:19;6.84;;;3.04;;
56680;SDS011;42558;52.388;13.390;2022-10-16T03:24:46;7.79;;;3.61;;
56680;SDS011;42558;52.388;13.390;2022-10-16T03:27:12;7.03;;;3.04;;
56680;SDS011;42558;52.388;13.390;2022-10-16T03:29:39;6.84;;;3.61;;
56680;SDS011;42558;52.388;13.390;2022-10-16T03:32:06;7.22;;;3.80;;
56680;SDS011;42558;52.388;13.390;2022-10-16T03:34:32;7.22;;;3.61;;
56680;SDS011;42558;52.388;13.390;2022-10-16T03:36:59;6.46;;;3.42;;
56680;SDS011;42558;52.388;13.390;2022-10-16T03:39:26;8.36;;;4.56;;
56680;SDS011;42558;52.388;13.390;2022-10-16T03:41:53;9.12;;;3.80;;
56680;SDS011;42558;52.388;13.390;2022-10-16T03:44:20;8.17;;;3.80;;
56680;SDS011;42558;52.388;13.390;2022-10-16T03:46:46;7.22;;;3.80;;
56680;SDS011;42558;52.388;13.390;2022-10-16T03:49:13;7.41;;;3.99;;
56680;SDS011;42558;52.388;13.390;2022-10-16T03:51:40;7.03;;;3.23;;
56680;SDS011;42558;52.388;13.390;2022-10-16T03:54:06;10.45;;;3.80;;
56680;SDS011;42558;52.388;13.390;2022-10-16T03:56:33;8.17;;;3.80;;
56680;SDS011;42558;52.388;13.390;2022-10-16T03:59:00;6.65;;;3.80;;
56680;SDS011;42558;52.388;13.390;2022-10-16T04:01:26;7.41;;;4.37;;
56680;SDS011;42558;52.388;13.390;2022-10-16T04:03:53;9.31;;;3.80;;
56680;SDS011;42558;52.388;13.390;2022-10-16T04:06:20;7.41;;;3.80;;
56680;SDS011;42558;52.388;13.390;2022-10-16T04:08:46;6.65;;;3.80;;
56680;SDS011;42558;52.388;13.390;2022-10-16T04:11:13;7.03;;;3.80;;
56680;SDS011;42558;52.388;13.390;2022-10-16T04:13:40;7.22;;;3.99;;
56680;SDS011;42558;52.388;13.390;2022-10-16T04:16:07;7.98;;;3.99;;
56680;SDS011;42558;52.388;13.390;2022-10-16T04:18:34;6.65;;;3.42;;
56680;SDS011;42558;52.388;13.390;2022-10-16T04:21:05;9.31;;;3.80;;
56680;SDS011;42558;52.388;13.390;2022-10-16T04:23:33;6.84;;;3.42;;
56680;SDS011;42558;52.388;13.390;2022-10-16T04:26:00;7.60;;;4.18;;
56680;SDS011;42558;52.388;13.390;2022-10-16T04:28:27;8.17;;;4.56;;
56680;SDS011;42558;52.388;13.390;2022-10-16T04:30:54;6.65;;;3.99;;
56680;SDS011;42558;52.388;13.390;2022-10-16T04:33:22;7.60;;;3.42;;
56680;SDS011;42558;52.388;13.390;2022-10-16T04:35:48;7.98;;;3.61;;
56680;SDS011;42558;52.388;13.390;2022-10-16T04:38:22;7.60;;;3.99;;
56680;SDS011;42558;52.388;13.390;2022-10-16T04:40:49;7.98;;;3.42;;
56680;SDS011;42558;52.388;13.390;2022-10-16T04:43:16;7.41;;;3.99;;
56680;SDS011;42558;52.388;13.390;2022-10-16T04:45:43;9.69;;;3.80;;
56680;SDS011;42558;52.388;13.390;2022-10-16T04:48:09;6.46;;;3.80;;
56680;SDS011;42558;52.388;13.390;2022-10-16T04:50:36;7.79;;;3.99;;
56680;SDS011;42558;52.388;13.390;2022-10-16T04:53:03;7.03;;;4.18;;
56680;SDS011;42558;52.388;13.390;2022-10-16T04:55:30;7.41;;;3.80;;
56680;SDS011;42558;52.388;13.390;2022-10-16T04:57:56;6.65;;;3.80;;
56680;SDS011;42558;52.388;13.390;2022-10-16T05:00:23;7.60;;;3.80;;
56680;SDS011;42558;52.388;13.390;2022-10-16T05:02:50;7.03;;;3.61;;
56680;SDS011;42558;52.388;13.390;2022-10-16T05:05:18;7.41;;;3.61;;
56680;SDS011;42558;52.388;13.390;2022-10-16T05:07:48;6.84;;;3.80;;
56680;SDS011;42558;52.388;13.390;2022-10-16T05:10:16;7.41;;;3.61;;
56680;SDS011;42558;52.388;13.390;2022-10-16T05:12:43;8.93;;;3.61;;
56680;SDS011;42558;52.388;13.390;2022-10-16T05:15:10;8.74;;;3.61;;
56680;SDS011;42558;52.388;13.390;2022-10-16T05:17:37;8.74;;;3.61;;
56680;SDS011;42558;52.388;13.390;2022-10-16T05:20:10;7.41;;;3.99;;
56680;SDS011;42558;52.388;13.390;2022-10-16T05:22:38;7.98;;;3.99;;
56680;SDS011;42558;52.388;13.390;2022-10-16T05:25:05;7.03;;;3.61;;
56680;SDS011;42558;52.388;13.390;2022-10-16T05:27:32;6.65;;;3.80;;
56680;SDS011;42558;52.388;13.390;2022-10-16T05:29:59;6.84;;;4.18;;
56680;SDS011;42558;52.388;13.390;2022-10-16T05:32:25;7.60;;;4.18;;
56680;SDS011;42558;52.388;13.390;2022-10-16T05:34:52;7.41;;;3.80;;
56680;SDS011;42558;52.388;13.390;2022-10-16T05:37:19;7.03;;;3.61;;
56680;SDS011;42558;52.388;13.390;2022-10-16T05:39:45;7.22;;;3.42;;
56680;SDS011;42558;52.388;13.390;2022-10-16T05:42:13;8.55;;;3.80;;
56680;SDS011;42558;52.388;13.390;2022-10-16T05:44:43;6.65;;;3.99;;
56680;SDS011;42558;52.388;13.390;2022-10-16T05:47:10;9.69;;;3.61;;
56680;SDS011;42558;52.388;13.390;2022-10-16T05:49:38;6.84;;;3.61;;
56680;SDS011;42558;52.388;13.390;2022-10-16T05:52:07;7.98;;;3.80;;
56680;SDS011;42558;52.388;13.390;2022-10-16T05:54:33;6.27;;;3.42;;
56680;SDS011;42558;52.388;13.390;2022-10-16T05:57:00;6.08;;;3.42;;
56680;SDS011;42558;52.388;13.390;2022-10-16T05:59:28;7.79;;;3.80;;
56680;SDS011;42558;52.388;13.390;2022-10-16T06:01:55;6.84;;;3.99;;
56680;SDS011;42558;52.388;13.390;2022-10-16T06:04:21;6.08;;;3.42;;
56680;SDS011;42558;52.388;13.390;2022-10-16T06:06:48;7.79;;;3.99;;
56680;SDS011;42558;52.388;13.390;2022-10-16T06:09:15;7.03;;;3.99;;
56680;SDS011;42558;52.388;13.390;2022-10-16T06:11:41;6.84;;;3.61;;
56680;SDS011;42558;52.388;13.390;2022-10-16T06:14:08;7.60;;;3.61;;
56680;SDS011;42558;52.388;13.390;2022-10-16T06:16:36;6.46;;;3.23;;
56680;SDS011;42558;52.388;13.390;2022-10-16T06:19:04;6.46;;;3.23;;
56680;SDS011;42558;52.388;13.390;2022-10-16T06:21:33;7.60;;;3.23;;
56680;SDS011;42558;52.388;13.390;2022-10-16T06:24:00;7.22;;;3.99;;
56680;SDS011;42558;52.388;13.390;2022-10-16T06:26:29;7.22;;;3.42;;
56680;SDS011;42558;52.388;13.390;2022-10-16T06:28:58;7.98;;;3.61;;
56680;SDS011;42558;52.388;13.390;2022-10-16T06:31:27;9.12;;;3.99;;
56680;SDS011;42558;52.388;13.390;2022-10-16T06:33:57;7.41;;;3.80;;
56680;SDS011;42558;52.388;13.390;2022-10-16T06:36:25;8.74;;;3.42;;
56680;SDS011;42558;52.388;13.390;2022-10-16T06:38:53;6.46;;;3.42;;
56680;SDS011;42558;52.388;13.390;2022-10-16T06:41:21;6.84;;;3.23;;
56680;SDS011;42558;52.388;13.390;2022-10-16T06:43:50;8.17;;;3.42;;
56680;SDS011;42558;52.388;13.390;2022-10-16T06:46:21;6.65;;;3.42;;
56680;SDS011;42558;52.388;13.390;2022-10-16T06:48:50;6.46;;;3.61;;
56680;SDS011;42558;52.388;13.390;2022-10-16T06:51:18;6.46;;;3.80;;
56680;SDS011;42558;52.388;13.390;2022-10-16T06:53:49;6.65;;;3.61;;
56680;SDS011;42558;52.388;13.390;2022-10-16T06:56:33;7.60;;;3.42;;
56680;SDS011;42558;52.388;13.390;2022-10-16T06:59:01;6.08;;;3.23;;
56680;SDS011;42558;52.388;13.390;2022-10-16T07:01:28;6.65;;;3.04;;
56680;SDS011;42558;52.388;13.390;2022-10-16T07:03:56;7.60;;;3.42;;
56680;SDS011;42558;52.388;13.390;2022-10-16T07:06:24;6.27;;;3.61;;
56680;SDS011;42558;52.388;13.390;2022-10-16T07:08:53;6.27;;;2.85;;
56680;SDS011;42558;52.388;13.390;2022-10-16T07:11:22;6.84;;;3.42;;
56680;SDS011;42558;52.388;13.390;2022-10-16T07:13:51;5.89;;;2.85;;
56680;SDS011;42558;52.388;13.390;2022-10-16T07:16:24;5.70;;;3.04;;
56680;SDS011;42558;52.388;13.390;2022-10-16T07:18:56;7.22;;;3.42;;
56680;SDS011;42558;52.388;13.390;2022-10-16T07:21:32;6.65;;;3.04;;
56680;SDS011;42558;52.388;13.390;2022-10-16T07:24:06;7.22;;;3.04;;
56680;SDS011;42558;52.388;13.390;2022-10-16T07:26:37;6.08;;;3.04;;
56680;SDS011;42558;52.388;13.390;2022-10-16T07:29:14;8.36;;;2.85;;
56680;SDS011;42558;52.388;13.390;2022-10-16T07:31:42;5.89;;;2.66;;
56680;SDS011;42558;52.388;13.390;2022-10-16T07:34:11;6.08;;;3.04;;
56680;SDS011;42558;52.388;13.390;2022-10-16T07:36:40;6.27;;;2.66;;
56680;SDS011;42558;52.388;13.390;2022-10-16T07:39:08;6.84;;;2.85;;
56680;SDS011;42558;52.388;13.390;2022-10-16T07:41:35;6.46;;;2.85;;
56680;SDS011;42558;52.388;13.390;2022-10-16T07:44:03;5.51;;;2.47;;
56680;SDS011;42558;52.388;13.390;2022-10-16T07:46:31;6.46;;;2.09;;
56680;SDS011;42558;52.388;13.390;2022-10-16T07:49:00;6.08;;;2.85;;
56680;SDS011;42558;52.388;13.390;2022-10-16T07:51:26;8.93;;;3.23;;
56680;SDS011;42558;52.388;13.390;2022-10-16T07:53:54;5.89;;;2.47;;
56680;SDS011;42558;52.388;13.390;2022-10-16T07:56:20;7.03;;;2.85;;
56680;SDS011;42558;52.388;13.390;2022-10-16T07:58:48;5.32;;;2.09;;
56680;SDS011;42558;52.388;13.390;2022-10-16T08:01:17;6.46;;;2.66;;
56680;SDS011;42558;52.388;13.390;2022-10-16T08:03:49;6.84;;;2.66;;
56680;SDS011;42558;52.388;13.390;2022-10-16T08:06:19;6.27;;;2.28;;
56680;SDS011;42558;52.388;13.390;2022-10-16T08:08:54;5.89;;;2.66;;
56680;SDS011;42558;52.388;13.390;2022-10-16T08:11:21;6.84;;;2.66;;
56680;SDS011;42558;52.388;13.390;2022-10-16T08:13:49;5.13;;;2.28;;
56680;SDS011;42558;52.388;13.390;2022-10-16T08:16:16;5.70;;;2.47;;
56680;SDS011;42558;52.388;13.390;2022-10-16T08:18:43;7.60;;;2.47;;
56680;SDS011;42558;52.388;13.390;2022-10-16T08:21:15;6.27;;;2.47;;
56680;SDS011;42558;52.388;13.390;2022-10-16T08:23:47;5.51;;;2.28;;
56680;SDS011;42558;52.388;13.390;2022-10-16T08:26:22;6.46;;;2.09;;
56680;SDS011;42558;52.388;13.390;2022-10-16T08:28:50;6.46;;;2.28;;
56680;SDS011;42558;52.388;13.390;2022-10-16T08:31:18;5.51;;;2.47;;
56680;SDS011;42558;52.388;13.390;2022-10-16T08:33:45;5.32;;;2.47;;
56680;SDS011;42558;52.388;13.390;2022-10-16T08:36:14;8.55;;;2.47;;
56680;SDS011;42558;52.388;13.390;2022-10-16T08:38:43;5.70;;;2.28;;
56680;SDS011;42558;52.388;13.390;2022-10-16T08:41:19;7.03;;;2.09;;
56680;SDS011;42558;52.388;13.390;2022-10-16T08:48:26;7.03;;;2.47;;
56680;SDS011;42558;52.388;13.390;2022-10-16T08:51:02;5.32;;;2.09;;
56680;SDS011;42558;52.388;13.390;2022-10-16T08:53:36;5.32;;;2.28;;
56680;SDS011;42558;52.388;13.390;2022-10-16T08:56:20;7.41;;;2.09;;
56680;SDS011;42558;52.388;13.390;2022-10-16T08:58:47;5.51;;;2.47;;
56680;SDS011;42558;52.388;13.390;2022-10-16T09:01:21;5.70;;;2.47;;
56680;SDS011;42558;52.388;13.390;2022-10-16T09:04:04;4.94;;;2.09;;
56680;SDS011;42558;52.388;13.390;2022-10-16T09:06:57;5.89;;;2.47;;
56680;SDS011;42558;52.388;13.390;2022-10-16T09:09:43;6.46;;;2.28;;
56680;SDS011;42558;52.388;13.390;2022-10-16T09:12:38;6.46;;;2.09;;
56680;SDS011;42558;52.388;13.390;2022-10-16T09:15:34;6.27;;;2.66;;
56680;SDS011;42558;52.388;13.390;2022-10-16T09:18:37;5.51;;;1.90;;
56680;SDS011;42558;52.388;13.390;2022-10-16T09:21:26;6.08;;;2.47;;
56680;SDS011;42558;52.388;13.390;2022-10-16T09:24:17;6.27;;;2.47;;
56680;SDS011;42558;52.388;13.390;2022-10-16T09:26:50;5.89;;;2.28;;
56680;SDS011;42558;52.388;13.390;2022-10-16T09:29:20;6.08;;;2.09;;
56680;SDS011;42558;52.388;13.390;2022-10-16T09:31:50;7.79;;;2.66;;
56680;SDS011;42558;52.388;13.390;2022-10-16T09:34:30;7.60;;;2.47;;
56680;SDS011;42558;52.388;13.390;2022-10-16T09:37:04;11.21;;;2.47;;
56680;SDS011;42558;52.388;13.390;2022-10-16T09:39:50;4.94;;;2.28;;
56680;SDS011;42558;52.388;13.390;2022-10-16T09:42:20;5.70;;;2.66;;
56680;SDS011;42558;52.388;13.390;2022-10-16T09:45:01;6.65;;;2.47;;
56680;SDS011;42558;52.388;13.390;2022-10-16T09:47:30;6.46;;;2.47;;
56680;SDS011;42558;52.388;13.390;2022-10-16T09:50:15;5.32;;;2.47;;
56680;SDS011;42558;52.388;13.390;2022-10-16T09:52:48;5.32;;;2.28;;
56680;SDS011;42558;52.388;13.390;2022-10-16T09:55:17;6.84;;;2.47;;
56680;SDS011;42558;52.388;13.390;2022-10-16T09:57:51;5.89;;;2.28;;
56680;SDS011;42558;52.388;13.390;2022-10-16T10:00:20;6.46;;;2.47;;
56680;SDS011;42558;52.388;13.390;2022-10-16T10:02:49;5.13;;;2.09;;
56680;SDS011;42558;52.388;13.390;2022-10-16T10:05:27;6.08;;;2.66;;
56680;SDS011;42558;52.388;13.390;2022-10-16T10:08:01;7.22;;;2.09;;
56680;SDS011;42558;52.388;13.390;2022-10-16T10:10:37;7.79;;;2.28;;
56680;SDS011;42558;52.388;13.390;2022-10-16T10:13:22;5.32;;;2.28;;
56680;SDS011;42558;52.388;13.390;2022-10-16T10:15:52;4.94;;;2.09;;
56680;SDS011;42558;52.388;13.390;2022-10-16T10:18:22;6.08;;;2.09;;
56680;SDS011;42558;52.388;13.390;2022-10-16T10:21:00;5.70;;;2.66;;
56680;SDS011;42558;52.388;13.390;2022-10-16T10:23:30;4.94;;;2.09;;
56680;SDS011;42558;52.388;13.390;2022-10-16T10:28:59;5.70;;;2.09;;
56680;SDS011;42558;52.388;13.390;2022-10-16T10:36:08;4.75;;;2.09;;
56680;SDS011;42558;52.388;13.390;2022-10-16T10:38:53;5.70;;;2.09;;
56680;SDS011;42558;52.388;13.390;2022-10-16T10:51:05;7.60;;;1.90;;
56680;SDS011;42558;52.388;13.390;2022-10-16T10:54:04;5.13;;;1.90;;
56680;SDS011;42558;52.388;13.390;2022-10-16T10:56:42;6.27;;;1.90;;
56680;SDS011;42558;52.388;13.390;2022-10-16T10:59:49;5.13;;;2.09;;
56680;SDS011;42558;52.388;13.390;2022-10-16T11:05:54;4.75;;;2.28;;
56680;SDS011;42558;52.388;13.390;2022-10-16T11:08:36;7.60;;;2.28;;
56680;SDS011;42558;52.388;13.390;2022-10-16T11:14:14;4.75;;;1.90;;
56680;SDS011;42558;52.388;13.390;2022-10-16T11:16:54;6.65;;;2.28;;
56680;SDS011;42558;52.388;13.390;2022-10-16T11:22:48;4.56;;;1.90;;
56680;SDS011;42558;52.388;13.390;2022-10-16T11:25:26;5.32;;;2.66;;
56680;SDS011;42558;52.388;13.390;2022-10-16T11:30:50;5.32;;;2.28;;
56680;SDS011;42558;52.388;13.390;2022-10-16T11:33:46;4.56;;;1.90;;
56680;SDS011;42558;52.388;13.390;2022-10-16T11:36:31;5.89;;;2.09;;
56680;SDS011;42558;52.388;13.390;2022-10-16T11:39:19;6.08;;;2.09;;
56680;SDS011;42558;52.388;13.390;2022-10-16T11:41:55;5.89;;;2.09;;
56680;SDS011;42558;52.388;13.390;2022-10-16T11:47:26;6.08;;;2.28;;
56680;SDS011;42558;52.388;13.390;2022-10-16T11:50:28;4.75;;;1.71;;
56680;SDS011;42558;52.388;13.390;2022-10-16T11:53:30;9.31;;;2.09;;
56680;SDS011;42558;52.388;13.390;2022-10-16T11:56:17;4.94;;;1.71;;
56680;SDS011;42558;52.388;13.390;2022-10-16T11:58:53;5.13;;;1.71;;
56680;SDS011;42558;52.388;13.390;2022-10-16T12:01:29;6.27;;;2.09;;
56680;SDS011;42558;52.388;13.390;2022-10-16T12:04:22;5.13;;;1.90;;
56680;SDS011;42558;52.388;13.390;2022-10-16T12:07:02;5.13;;;1.90;;
56680;SDS011;42558;52.388;13.390;2022-10-16T12:09:37;4.37;;;1.52;;
56680;SDS011;42558;52.388;13.390;2022-10-16T12:12:38;4.94;;;2.28;;
56680;SDS011;42558;52.388;13.390;2022-10-16T12:15:23;5.70;;;2.09;;
56680;SDS011;42558;52.388;13.390;2022-10-16T12:18:24;5.70;;;1.90;;
56680;SDS011;42558;52.388;13.390;2022-10-16T12:20:56;4.94;;;1.71;;
56680;SDS011;42558;52.388;13.390;2022-10-16T12:23:47;5.13;;;1.52;;
56680;SDS011;42558;52.388;13.390;2022-10-16T12:26:27;5.70;;;1.52;;
56680;SDS011;42558;52.388;13.390;2022-10-16T12:29:22;4.94;;;1.71;;
56680;SDS011;42558;52.388;13.390;2022-10-16T12:31:56;4.37;;;1.71;;
56680;SDS011;42558;52.388;13.390;2022-10-16T12:34:41;5.13;;;1.71;;
56680;SDS011;42558;52.388;13.390;2022-10-16T12:37:18;5.89;;;1.71;;
56680;SDS011;42558;52.388;13.390;2022-10-16T12:39:50;4.94;;;1.71;;
56680;SDS011;42558;52.388;13.390;2022-10-16T12:42:32;4.56;;;1.71;;
56680;SDS011;42558;52.388;13.390;2022-10-16T12:45:01;6.08;;;1.90;;
56680;SDS011;42558;52.388;13.390;2022-10-16T12:47:59;4.37;;;1.71;;
56680;SDS011;42558;52.388;13.390;2022-10-16T12:50:38;4.56;;;1.52;;
56680;SDS011;42558;52.388;13.390;2022-10-16T12:53:22;3.99;;;1.71;;
56680;SDS011;42558;52.388;13.390;2022-10-16T12:56:12;5.51;;;1.52;;
56680;SDS011;42558;52.388;13.390;2022-10-16T13:04:50;5.51;;;1.52;;
56680;SDS011;42558;52.388;13.390;2022-10-16T13:17:00;6.84;;;1.90;;
56680;SDS011;42558;52.388;13.390;2022-10-16T13:19:56;5.32;;;1.90;;
56680;SDS011;42558;52.388;13.390;2022-10-16T13:22:58;5.32;;;1.90;;
56680;SDS011;42558;52.388;13.390;2022-10-16T13:28:39;7.03;;;1.90;;
56680;SDS011;42558;52.388;13.390;2022-10-16T13:31:15;5.89;;;1.71;;
56680;SDS011;42558;52.388;13.390;2022-10-16T13:33:49;6.65;;;1.90;;
56680;SDS011;42558;52.388;13.390;2022-10-16T13:36:21;5.13;;;1.71;;
56680;SDS011;42558;52.388;13.390;2022-10-16T13:42:27;4.56;;;1.71;;
56680;SDS011;42558;52.388;13.390;2022-10-16T13:44:56;5.13;;;1.90;;
56680;SDS011;42558;52.388;13.390;2022-10-16T13:47:28;4.56;;;1.52;;
56680;SDS011;42558;52.388;13.390;2022-10-16T13:52:38;5.51;;;1.71;;
56680;SDS011;42558;52.388;13.390;2022-10-16T13:55:13;5.13;;;1.71;;
56680;SDS011;42558;52.388;13.390;2022-10-16T13:57:41;4.94;;;1.90;;
56680;SDS011;42558;52.388;13.390;2022-10-16T14:00:28;8.74;;;2.47;;
56680;SDS011;42558;52.388;13.390;2022-10-16T14:03:02;6.08;;;1.71;;
56680;SDS011;42558;52.388;13.390;2022-10-16T14:05:50;5.13;;;1.71;;
56680;SDS011;42558;52.388;13.390;2022-10-16T14:08:19;7.60;;;2.28;;
56680;SDS011;42558;52.388;13.390;2022-10-16T14:10:50;5.70;;;1.71;;
56680;SDS011;42558;52.388;13.390;2022-10-16T14:13:28;6.08;;;2.09;;
56680;SDS011;42558;52.388;13.390;2022-10-16T14:16:00;4.56;;;1.71;;
56680;SDS011;42558;52.388;13.390;2022-10-16T14:18:32;5.70;;;2.09;;
56680;SDS011;42558;52.388;13.390;2022-10-16T14:21:05;4.94;;;1.90;;
56680;SDS011;42558;52.388;13.390;2022-10-16T14:23:39;5.32;;;1.52;;
56680;SDS011;42558;52.388;13.390;2022-10-16T14:28:37;6.46;;;2.09;;
56680;SDS011;42558;52.388;13.390;2022-10-16T14:33:45;4.56;;;1.71;;
56680;SDS011;42558;52.388;13.390;2022-10-16T14:36:14;6.84;;;2.28;;
56680;SDS011;42558;52.388;13.390;2022-10-16T14:41:23;7.60;;;2.28;;
56680;SDS011;42558;52.388;13.390;2022-10-16T14:43:55;5.89;;;2.09;;
56680;SDS011;42558;52.388;13.390;2022-10-16T14:46:34;6.46;;;2.09;;
56680;SDS011;42558;52.388;13.390;2022-10-16T14:51:39;5.89;;;1.90;;
56680;SDS011;42558;52.388;13.390;2022-10-16T14:54:09;4.56;;;1.71;;
56680;SDS011;42558;52.388;13.390;2022-10-16T14:56:51;5.32;;;2.09;;
56680;SDS011;42558;52.388;13.390;2022-10-16T14:59:35;5.13;;;1.71;;
56680;SDS011;42558;52.388;13.390;2022-10-16T15:04:46;4.94;;;1.90;;
56680;SDS011;42558;52.388;13.390;2022-10-16T15:07:13;4.75;;;1.71;;
56680;SDS011;42558;52.388;13.390;2022-10-16T15:09:40;5.70;;;1.90;;
56680;SDS011;42558;52.388;13.390;2022-10-16T15:12:15;5.70;;;1.71;;
56680;SDS011;42558;52.388;13.390;2022-10-16T15:14:43;5.13;;;1.71;;
56680;SDS011;42558;52.388;13.390;2022-10-16T15:17:10;5.13;;;1.90;;
56680;SDS011;42558;52.388;13.390;2022-10-16T15:19:38;6.84;;;2.09;;
56680;SDS011;42558;52.388;13.390;2022-10-16T15:22:04;6.65;;;1.71;;
56680;SDS011;42558;52.388;13.390;2022-10-16T15:24:31;4.75;;;2.09;;
56680;SDS011;42558;52.388;13.390;2022-10-16T15:26:58;4.94;;;2.09;;
56680;SDS011;42558;52.388;13.390;2022-10-16T15:29:25;6.46;;;2.28;;
56680;SDS011;42558;52.388;13.390;2022-10-16T15:31:51;4.56;;;1.90;;
56680;SDS011;42558;52.388;13.390;2022-10-16T15:34:18;5.13;;;1.71;;
56680;SDS011;42558;52.388;13.390;2022-10-16T15:36:46;6.84;;;2.28;;
56680;SDS011;42558;52.388;13.390;2022-10-16T15:39:15;5.89;;;1.90;;
56680;SDS011;42558;52.388;13.390;2022-10-16T15:41:45;5.51;;;2.09;;
56680;SDS011;42558;52.388;13.390;2022-10-16T15:44:18;4.75;;;1.52;;
56680;SDS011;42558;52.388;13.390;2022-10-16T15:46:46;7.03;;;1.90;;
56680;SDS011;42558;52.388;13.390;2022-10-16T15:49:13;5.32;;;1.90;;
56680;SDS011;42558;52.388;13.390;2022-10-16T15:51:42;6.84;;;2.09;;
56680;SDS011;42558;52.388;13.390;2022-10-16T15:54:09;5.89;;;2.28;;
56680;SDS011;42558;52.388;13.390;2022-10-16T15:56:35;8.36;;;2.28;;
56680;SDS011;42558;52.388;13.390;2022-10-16T15:59:04;9.12;;;2.09;;
56680;SDS011;42558;52.388;13.390;2022-10-16T16:01:33;5.89;;;2.09;;
56680;SDS011;42558;52.388;13.390;2022-10-16T16:04:01;4.94;;;2.09;;
56680;SDS011;42558;52.388;13.390;2022-10-16T16:06:41;5.51;;;2.09;;
56680;SDS011;42558;52.388;13.390;2022-10-16T16:09:12;6.46;;;2.09;;
56680;SDS011;42558;52.388;13.390;2022-10-16T16:11:40;5.70;;;1.71;;
56680;SDS011;42558;52.388;13.390;2022-10-16T16:14:13;6.08;;;2.09;;
56680;SDS011;42558;52.388;13.390;2022-10-16T16:16:41;5.32;;;2.09;;
56680;SDS011;42558;52.388;13.390;2022-10-16T16:19:09;5.51;;;2.47;;
56680;SDS011;42558;52.388;13.390;2022-10-16T16:21:38;6.08;;;2.28;;
56680;SDS011;42558;52.388;13.390;2022-10-16T16:24:05;5.51;;;2.66;;
56680;SDS011;42558;52.388;13.390;2022-10-16T16:26:35;10.07;;;2.66;;
56680;SDS011;42558;52.388;13.390;2022-10-16T16:29:06;8.17;;;3.04;;